METAR Formatted Surface Weather Observation
Issued by NWS

Home | Current Version | Previous Version | Text Only | Print | Product List | Glossary On
Versions: 1 2 3
000
SPZS31 NSTU 250911
MTRSPP
SPECI NSTU 250908Z VRB03KT 10SM -SHRA BKN016CB OVC035 26/24 A2970
RMK TSE08 CB ALQDS=


USA.gov is the U.S. government's official web portal to all federal, state and local government web resources and services.